Terminal Aerodrome Forecast
Issued by NWS

Home | Current Version | Previous Version | Text Only | Print | Product List | Glossary On
Versions: 1 2 3 4 5 6 7 8 9 10 11 12 13 14 15 16 17 18 19 20 21 22 23 24 25 26 27 28 29 30 31 32 33 34 35 36 37 38
000
FTUS43 KDMX 241359 AAA
TAFMCW
TAF AMD
KMCW 241359Z 2414/2512 01011KT P6SM SCT009 BKN060
      TEMPO 2414/2416 BKN009
     FM241700 01010KT P6SM SCT040 BKN070
     FM250100 VRB06KT P6SM SCT070 BKN150=

USA.gov is the U.S. government's official web portal to all federal, state and local government web resources and services.